sensor_id;sensor_type;location;lat;lon;timestamp;temperature;humidity
15596;DHT22;7898;48.658;9.068;2023-09-07T00:01:30;13.70;99.90
15596;DHT22;7898;48.658;9.068;2023-09-07T00:03:59;13.60;99.90
15596;DHT22;7898;48.658;9.068;2023-09-07T00:06:26;13.60;99.90
15596;DHT22;7898;48.658;9.068;2023-09-07T00:08:52;13.60;99.90
15596;DHT22;7898;48.658;9.068;2023-09-07T00:11:19;13.60;99.90
15596;DHT22;7898;48.658;9.068;2023-09-07T00:13:46;13.60;99.90
15596;DHT22;7898;48.658;9.068;2023-09-07T00:16:13;13.60;99.90
15596;DHT22;7898;48.658;9.068;2023-09-07T00:18:40;13.50;99.90
15596;DHT22;7898;48.658;9.068;2023-09-07T00:21:08;13.50;99.90
15596;DHT22;7898;48.658;9.068;2023-09-07T00:23:35;13.50;99.90
15596;DHT22;7898;48.658;9.068;2023-09-07T00:26:02;13.50;99.90
15596;DHT22;7898;48.658;9.068;2023-09-07T00:28:29;13.50;99.90
15596;DHT22;7898;48.658;9.068;2023-09-07T00:30:55;13.50;99.90
15596;DHT22;7898;48.658;9.068;2023-09-07T00:33:22;13.40;99.90
15596;DHT22;7898;48.658;9.068;2023-09-07T00:35:49;13.40;99.90
15596;DHT22;7898;48.658;9.068;2023-09-07T00:38:17;13.40;99.90
15596;DHT22;7898;48.658;9.068;2023-09-07T00:40:44;13.40;99.90
15596;DHT22;7898;48.658;9.068;2023-09-07T00:43:11;13.40;99.90
15596;DHT22;7898;48.658;9.068;2023-09-07T00:45:39;13.40;99.90
15596;DHT22;7898;48.658;9.068;2023-09-07T00:48:06;13.30;99.90
15596;DHT22;7898;48.658;9.068;2023-09-07T00:50:33;13.30;99.90
15596;DHT22;7898;48.658;9.068;2023-09-07T00:53:01;13.30;99.90
15596;DHT22;7898;48.658;9.068;2023-09-07T00:55:30;13.20;99.90
15596;DHT22;7898;48.658;9.068;2023-09-07T00:57:58;13.20;99.90
15596;DHT22;7898;48.658;9.068;2023-09-07T01:00:26;13.20;99.90
15596;DHT22;7898;48.658;9.068;2023-09-07T01:02:53;13.20;99.90
15596;DHT22;7898;48.658;9.068;2023-09-07T01:05:21;13.10;99.90
15596;DHT22;7898;48.658;9.068;2023-09-07T01:07:53;13.20;99.90
15596;DHT22;7898;48.658;9.068;2023-09-07T01:10:21;13.10;99.90
15596;DHT22;7898;48.658;9.068;2023-09-07T01:12:49;13.00;99.90
15596;DHT22;7898;48.658;9.068;2023-09-07T01:15:16;13.00;99.90
15596;DHT22;7898;48.658;9.068;2023-09-07T01:17:43;13.00;99.90
15596;DHT22;7898;48.658;9.068;2023-09-07T01:20:13;12.90;99.90
15596;DHT22;7898;48.658;9.068;2023-09-07T01:22:43;12.90;99.90
15596;DHT22;7898;48.658;9.068;2023-09-07T01:25:11;12.90;99.90
15596;DHT22;7898;48.658;9.068;2023-09-07T01:27:38;12.90;99.90
15596;DHT22;7898;48.658;9.068;2023-09-07T01:30:07;12.90;99.90
15596;DHT22;7898;48.658;9.068;2023-09-07T01:32:34;12.90;99.90
15596;DHT22;7898;48.658;9.068;2023-09-07T01:35:02;12.80;99.90
15596;DHT22;7898;48.658;9.068;2023-09-07T01:37:31;12.70;99.90
15596;DHT22;7898;48.658;9.068;2023-09-07T01:39:59;12.70;99.90
15596;DHT22;7898;48.658;9.068;2023-09-07T01:42:26;12.70;99.90
15596;DHT22;7898;48.658;9.068;2023-09-07T01:44:53;12.60;99.90
15596;DHT22;7898;48.658;9.068;2023-09-07T01:47:20;12.70;99.90
15596;DHT22;7898;48.658;9.068;2023-09-07T01:49:47;12.60;99.90
15596;DHT22;7898;48.658;9.068;2023-09-07T01:52:13;12.70;99.90
15596;DHT22;7898;48.658;9.068;2023-09-07T01:54:40;12.70;99.90
15596;DHT22;7898;48.658;9.068;2023-09-07T01:57:08;12.70;99.90
15596;DHT22;7898;48.658;9.068;2023-09-07T01:59:35;12.50;99.90
15596;DHT22;7898;48.658;9.068;2023-09-07T02:02:02;12.60;99.90
15596;DHT22;7898;48.658;9.068;2023-09-07T02:04:29;12.50;99.90
15596;DHT22;7898;48.658;9.068;2023-09-07T02:06:56;12.40;99.90
15596;DHT22;7898;48.658;9.068;2023-09-07T02:09:23;12.40;99.90
15596;DHT22;7898;48.658;9.068;2023-09-07T02:11:50;12.30;99.90
15596;DHT22;7898;48.658;9.068;2023-09-07T02:14:18;12.40;99.90
15596;DHT22;7898;48.658;9.068;2023-09-07T02:16:45;12.30;99.90
15596;DHT22;7898;48.658;9.068;2023-09-07T02:19:12;12.30;99.90
15596;DHT22;7898;48.658;9.068;2023-09-07T02:21:38;12.30;99.90
15596;DHT22;7898;48.658;9.068;2023-09-07T02:24:05;12.20;99.90
15596;DHT22;7898;48.658;9.068;2023-09-07T02:26:32;12.20;99.90
15596;DHT22;7898;48.658;9.068;2023-09-07T02:28:59;12.30;99.90
15596;DHT22;7898;48.658;9.068;2023-09-07T02:31:32;12.20;99.90
15596;DHT22;7898;48.658;9.068;2023-09-07T02:33:58;12.20;99.90
15596;DHT22;7898;48.658;9.068;2023-09-07T02:36:25;12.20;99.90
15596;DHT22;7898;48.658;9.068;2023-09-07T02:38:52;12.20;99.90
15596;DHT22;7898;48.658;9.068;2023-09-07T02:41:19;12.20;99.90
15596;DHT22;7898;48.658;9.068;2023-09-07T02:43:46;12.40;99.90
15596;DHT22;7898;48.658;9.068;2023-09-07T02:46:13;12.20;99.90
15596;DHT22;7898;48.658;9.068;2023-09-07T02:48:41;12.20;99.90
15596;DHT22;7898;48.658;9.068;2023-09-07T02:51:08;12.20;99.90
15596;DHT22;7898;48.658;9.068;2023-09-07T02:53:34;12.10;99.90
15596;DHT22;7898;48.658;9.068;2023-09-07T02:56:01;12.10;99.90
15596;DHT22;7898;48.658;9.068;2023-09-07T02:58:30;12.00;99.90
15596;DHT22;7898;48.658;9.068;2023-09-07T03:00:56;12.10;99.90
15596;DHT22;7898;48.658;9.068;2023-09-07T03:03:23;12.00;99.90
15596;DHT22;7898;48.658;9.068;2023-09-07T03:05:52;12.00;99.90
15596;DHT22;7898;48.658;9.068;2023-09-07T03:08:18;11.90;99.90
15596;DHT22;7898;48.658;9.068;2023-09-07T03:10:45;12.00;99.90
15596;DHT22;7898;48.658;9.068;2023-09-07T03:13:12;11.90;99.90
15596;DHT22;7898;48.658;9.068;2023-09-07T03:15:39;11.90;99.90
15596;DHT22;7898;48.658;9.068;2023-09-07T03:18:06;11.80;99.90
15596;DHT22;7898;48.658;9.068;2023-09-07T03:20:33;11.80;99.90
15596;DHT22;7898;48.658;9.068;2023-09-07T03:23:01;11.80;99.90
15596;DHT22;7898;48.658;9.068;2023-09-07T03:25:29;11.80;99.90
15596;DHT22;7898;48.658;9.068;2023-09-07T03:27:56;11.70;99.90
15596;DHT22;7898;48.658;9.068;2023-09-07T03:30:23;11.70;99.90
15596;DHT22;7898;48.658;9.068;2023-09-07T03:32:49;11.80;99.90
15596;DHT22;7898;48.658;9.068;2023-09-07T03:35:16;11.80;99.90
15596;DHT22;7898;48.658;9.068;2023-09-07T03:37:43;11.70;99.90
15596;DHT22;7898;48.658;9.068;2023-09-07T03:40:11;11.70;99.90
15596;DHT22;7898;48.658;9.068;2023-09-07T03:42:38;11.70;99.90
15596;DHT22;7898;48.658;9.068;2023-09-07T03:45:06;11.60;99.90
15596;DHT22;7898;48.658;9.068;2023-09-07T03:47:33;11.60;99.90
15596;DHT22;7898;48.658;9.068;2023-09-07T03:50:00;11.50;99.90
15596;DHT22;7898;48.658;9.068;2023-09-07T03:52:27;11.50;99.90
15596;DHT22;7898;48.658;9.068;2023-09-07T03:54:54;11.60;99.90
15596;DHT22;7898;48.658;9.068;2023-09-07T03:57:23;11.60;99.90
15596;DHT22;7898;48.658;9.068;2023-09-07T03:59:50;11.60;99.90
15596;DHT22;7898;48.658;9.068;2023-09-07T04:02:17;11.60;99.90
15596;DHT22;7898;48.658;9.068;2023-09-07T04:04:48;11.50;99.90
15596;DHT22;7898;48.658;9.068;2023-09-07T04:07:15;11.50;99.90
15596;DHT22;7898;48.658;9.068;2023-09-07T04:09:43;11.50;99.90
15596;DHT22;7898;48.658;9.068;2023-09-07T04:12:10;11.40;99.90
15596;DHT22;7898;48.658;9.068;2023-09-07T04:14:39;11.40;99.90
15596;DHT22;7898;48.658;9.068;2023-09-07T04:17:07;11.40;99.90
15596;DHT22;7898;48.658;9.068;2023-09-07T04:19:34;11.40;99.90
15596;DHT22;7898;48.658;9.068;2023-09-07T04:22:01;11.40;99.90
15596;DHT22;7898;48.658;9.068;2023-09-07T04:24:28;11.40;99.90
15596;DHT22;7898;48.658;9.068;2023-09-07T04:26:58;11.40;99.90
15596;DHT22;7898;48.658;9.068;2023-09-07T04:29:26;11.40;99.90
15596;DHT22;7898;48.658;9.068;2023-09-07T04:31:55;11.40;99.90
15596;DHT22;7898;48.658;9.068;2023-09-07T04:34:22;11.30;99.90
15596;DHT22;7898;48.658;9.068;2023-09-07T04:36:49;11.30;99.90
15596;DHT22;7898;48.658;9.068;2023-09-07T04:39:16;11.20;99.90
15596;DHT22;7898;48.658;9.068;2023-09-07T04:41:43;11.20;99.90
15596;DHT22;7898;48.658;9.068;2023-09-07T04:44:10;11.20;99.90
15596;DHT22;7898;48.658;9.068;2023-09-07T04:46:37;11.20;99.90
15596;DHT22;7898;48.658;9.068;2023-09-07T04:49:05;11.20;99.90
15596;DHT22;7898;48.658;9.068;2023-09-07T04:51:32;11.30;99.90
15596;DHT22;7898;48.658;9.068;2023-09-07T04:53:59;11.20;99.90
15596;DHT22;7898;48.658;9.068;2023-09-07T04:56:26;11.20;99.90
15596;DHT22;7898;48.658;9.068;2023-09-07T04:58:54;11.10;99.90
15596;DHT22;7898;48.658;9.068;2023-09-07T05:01:21;11.10;99.90
15596;DHT22;7898;48.658;9.068;2023-09-07T05:03:48;11.10;99.90
15596;DHT22;7898;48.658;9.068;2023-09-07T05:06:17;11.10;99.90
15596;DHT22;7898;48.658;9.068;2023-09-07T05:08:44;11.10;99.90
15596;DHT22;7898;48.658;9.068;2023-09-07T05:11:11;11.20;99.90
15596;DHT22;7898;48.658;9.068;2023-09-07T05:13:38;11.20;99.90
15596;DHT22;7898;48.658;9.068;2023-09-07T05:16:05;11.30;99.90
15596;DHT22;7898;48.658;9.068;2023-09-07T05:18:32;11.20;99.90
15596;DHT22;7898;48.658;9.068;2023-09-07T05:20:58;11.40;99.90
15596;DHT22;7898;48.658;9.068;2023-09-07T05:23:27;11.50;99.90
15596;DHT22;7898;48.658;9.068;2023-09-07T05:25:54;11.60;99.90
15596;DHT22;7898;48.658;9.068;2023-09-07T05:28:22;11.70;99.90
15596;DHT22;7898;48.658;9.068;2023-09-07T05:30:49;11.70;99.90
15596;DHT22;7898;48.658;9.068;2023-09-07T05:33:17;11.70;99.90
15596;DHT22;7898;48.658;9.068;2023-09-07T05:35:44;11.80;99.90
15596;DHT22;7898;48.658;9.068;2023-09-07T05:38:12;11.90;99.90
15596;DHT22;7898;48.658;9.068;2023-09-07T05:40:41;11.90;99.90
15596;DHT22;7898;48.658;9.068;2023-09-07T05:43:09;11.90;99.90
15596;DHT22;7898;48.658;9.068;2023-09-07T05:45:38;12.00;99.90
15596;DHT22;7898;48.658;9.068;2023-09-07T05:48:06;12.00;99.90
15596;DHT22;7898;48.658;9.068;2023-09-07T05:50:34;12.10;99.90
15596;DHT22;7898;48.658;9.068;2023-09-07T05:53:01;12.30;99.90
15596;DHT22;7898;48.658;9.068;2023-09-07T05:55:28;12.50;99.90
15596;DHT22;7898;48.658;9.068;2023-09-07T05:57:57;12.70;99.90
15596;DHT22;7898;48.658;9.068;2023-09-07T06:00:24;12.80;99.90
15596;DHT22;7898;48.658;9.068;2023-09-07T06:02:51;13.00;99.90
15596;DHT22;7898;48.658;9.068;2023-09-07T06:05:18;13.10;99.90
15596;DHT22;7898;48.658;9.068;2023-09-07T06:07:45;13.30;99.90
15596;DHT22;7898;48.658;9.068;2023-09-07T06:10:12;13.50;99.90
15596;DHT22;7898;48.658;9.068;2023-09-07T06:12:39;13.70;99.90
15596;DHT22;7898;48.658;9.068;2023-09-07T06:15:08;13.90;99.90
15596;DHT22;7898;48.658;9.068;2023-09-07T06:17:36;14.10;99.90
15596;DHT22;7898;48.658;9.068;2023-09-07T06:20:03;14.30;99.90
15596;DHT22;7898;48.658;9.068;2023-09-07T06:22:31;14.50;99.90
15596;DHT22;7898;48.658;9.068;2023-09-07T06:24:58;14.70;99.90
15596;DHT22;7898;48.658;9.068;2023-09-07T06:27:25;14.90;99.90
15596;DHT22;7898;48.658;9.068;2023-09-07T06:29:52;15.00;99.90
15596;DHT22;7898;48.658;9.068;2023-09-07T06:32:20;15.30;99.90
15596;DHT22;7898;48.658;9.068;2023-09-07T06:34:47;15.80;99.90
15596;DHT22;7898;48.658;9.068;2023-09-07T06:37:14;16.70;99.90
15596;DHT22;7898;48.658;9.068;2023-09-07T06:39:40;17.60;99.90
15596;DHT22;7898;48.658;9.068;2023-09-07T06:42:09;18.40;99.90
15596;DHT22;7898;48.658;9.068;2023-09-07T06:44:36;19.10;99.90
15596;DHT22;7898;48.658;9.068;2023-09-07T06:47:03;19.70;99.90
15596;DHT22;7898;48.658;9.068;2023-09-07T06:49:31;20.30;99.90
15596;DHT22;7898;48.658;9.068;2023-09-07T06:51:58;21.00;99.90
15596;DHT22;7898;48.658;9.068;2023-09-07T06:54:27;21.40;99.90
15596;DHT22;7898;48.658;9.068;2023-09-07T06:56:54;21.80;99.90
15596;DHT22;7898;48.658;9.068;2023-09-07T06:59:21;22.30;99.90
15596;DHT22;7898;48.658;9.068;2023-09-07T07:01:48;23.10;99.90
15596;DHT22;7898;48.658;9.068;2023-09-07T07:04:14;23.50;99.90
15596;DHT22;7898;48.658;9.068;2023-09-07T07:06:43;23.50;99.90
15596;DHT22;7898;48.658;9.068;2023-09-07T07:09:10;23.60;99.90
15596;DHT22;7898;48.658;9.068;2023-09-07T07:11:37;23.80;99.90
15596;DHT22;7898;48.658;9.068;2023-09-07T07:14:04;24.00;99.90
15596;DHT22;7898;48.658;9.068;2023-09-07T07:16:31;24.50;99.90
15596;DHT22;7898;48.658;9.068;2023-09-07T07:18:58;24.60;99.90
15596;DHT22;7898;48.658;9.068;2023-09-07T07:21:25;25.00;99.90
15596;DHT22;7898;48.658;9.068;2023-09-07T07:23:53;25.10;99.90
15596;DHT22;7898;48.658;9.068;2023-09-07T07:26:20;24.90;99.90
15596;DHT22;7898;48.658;9.068;2023-09-07T07:28:47;25.40;99.90
15596;DHT22;7898;48.658;9.068;2023-09-07T07:31:13;25.80;99.90
15596;DHT22;7898;48.658;9.068;2023-09-07T07:33:40;26.10;99.90
15596;DHT22;7898;48.658;9.068;2023-09-07T07:36:07;26.80;99.90
15596;DHT22;7898;48.658;9.068;2023-09-07T07:38:34;26.50;99.90
15596;DHT22;7898;48.658;9.068;2023-09-07T07:41:02;26.70;99.90
15596;DHT22;7898;48.658;9.068;2023-09-07T07:43:30;27.00;99.90
15596;DHT22;7898;48.658;9.068;2023-09-07T07:45:58;27.40;99.90
15596;DHT22;7898;48.658;9.068;2023-09-07T07:48:25;27.50;99.90
15596;DHT22;7898;48.658;9.068;2023-09-07T07:50:54;27.60;99.90
15596;DHT22;7898;48.658;9.068;2023-09-07T07:53:21;27.60;99.90
15596;DHT22;7898;48.658;9.068;2023-09-07T07:55:48;27.90;99.90
15596;DHT22;7898;48.658;9.068;2023-09-07T07:58:16;28.00;99.90
15596;DHT22;7898;48.658;9.068;2023-09-07T08:00:43;27.90;99.90
15596;DHT22;7898;48.658;9.068;2023-09-07T08:03:13;27.90;99.90
15596;DHT22;7898;48.658;9.068;2023-09-07T08:05:40;27.80;99.90
15596;DHT22;7898;48.658;9.068;2023-09-07T08:08:08;27.70;99.90
15596;DHT22;7898;48.658;9.068;2023-09-07T08:10:35;27.70;99.90
15596;DHT22;7898;48.658;9.068;2023-09-07T08:13:03;27.70;99.90
15596;DHT22;7898;48.658;9.068;2023-09-07T08:15:32;28.00;99.90
15596;DHT22;7898;48.658;9.068;2023-09-07T08:17:59;28.00;99.90
15596;DHT22;7898;48.658;9.068;2023-09-07T08:20:26;27.60;99.90
15596;DHT22;7898;48.658;9.068;2023-09-07T08:22:55;27.20;99.90
15596;DHT22;7898;48.658;9.068;2023-09-07T08:25:23;27.20;99.90
15596;DHT22;7898;48.658;9.068;2023-09-07T08:27:51;27.00;99.90
15596;DHT22;7898;48.658;9.068;2023-09-07T08:30:21;26.90;99.90
15596;DHT22;7898;48.658;9.068;2023-09-07T08:32:51;26.80;99.90
15596;DHT22;7898;48.658;9.068;2023-09-07T08:35:18;26.80;99.90
15596;DHT22;7898;48.658;9.068;2023-09-07T08:37:45;26.60;99.90
15596;DHT22;7898;48.658;9.068;2023-09-07T08:40:12;26.50;99.90
15596;DHT22;7898;48.658;9.068;2023-09-07T08:42:42;26.70;99.90
15596;DHT22;7898;48.658;9.068;2023-09-07T08:45:12;26.90;99.90
15596;DHT22;7898;48.658;9.068;2023-09-07T08:47:41;27.20;99.90
15596;DHT22;7898;48.658;9.068;2023-09-07T08:50:11;27.60;99.90
15596;DHT22;7898;48.658;9.068;2023-09-07T08:52:38;27.90;99.90
15596;DHT22;7898;48.658;9.068;2023-09-07T08:55:06;28.10;99.90
15596;DHT22;7898;48.658;9.068;2023-09-07T08:57:34;28.20;99.90
15596;DHT22;7898;48.658;9.068;2023-09-07T09:00:01;28.20;99.90
15596;DHT22;7898;48.658;9.068;2023-09-07T09:02:34;28.10;99.90
15596;DHT22;7898;48.658;9.068;2023-09-07T09:05:02;27.80;99.90
15596;DHT22;7898;48.658;9.068;2023-09-07T09:07:31;27.60;99.90
15596;DHT22;7898;48.658;9.068;2023-09-07T09:10:05;27.20;99.90
15596;DHT22;7898;48.658;9.068;2023-09-07T09:12:32;27.10;99.90
15596;DHT22;7898;48.658;9.068;2023-09-07T09:15:00;27.00;99.90
15596;DHT22;7898;48.658;9.068;2023-09-07T09:17:27;26.70;99.90
15596;DHT22;7898;48.658;9.068;2023-09-07T09:19:54;26.70;99.90
15596;DHT22;7898;48.658;9.068;2023-09-07T09:22:21;26.40;99.90
15596;DHT22;7898;48.658;9.068;2023-09-07T09:24:49;26.10;99.90
15596;DHT22;7898;48.658;9.068;2023-09-07T09:27:16;26.00;99.90
15596;DHT22;7898;48.658;9.068;2023-09-07T09:29:43;25.80;99.90
15596;DHT22;7898;48.658;9.068;2023-09-07T09:32:14;25.50;99.90
15596;DHT22;7898;48.658;9.068;2023-09-07T09:34:43;25.40;99.90
15596;DHT22;7898;48.658;9.068;2023-09-07T09:37:14;25.30;99.90
15596;DHT22;7898;48.658;9.068;2023-09-07T09:39:42;25.30;99.90
15596;DHT22;7898;48.658;9.068;2023-09-07T09:42:12;25.20;99.90
15596;DHT22;7898;48.658;9.068;2023-09-07T09:44:39;25.30;99.90
15596;DHT22;7898;48.658;9.068;2023-09-07T09:47:08;25.40;99.90
15596;DHT22;7898;48.658;9.068;2023-09-07T09:49:35;25.20;99.90
15596;DHT22;7898;48.658;9.068;2023-09-07T09:52:04;25.10;99.90
15596;DHT22;7898;48.658;9.068;2023-09-07T09:54:33;25.00;99.90
15596;DHT22;7898;48.658;9.068;2023-09-07T09:57:01;25.00;99.90
15596;DHT22;7898;48.658;9.068;2023-09-07T09:59:29;24.90;99.90
15596;DHT22;7898;48.658;9.068;2023-09-07T10:01:57;25.00;99.90
15596;DHT22;7898;48.658;9.068;2023-09-07T10:04:26;25.00;99.90
15596;DHT22;7898;48.658;9.068;2023-09-07T10:06:56;25.10;99.90
15596;DHT22;7898;48.658;9.068;2023-09-07T10:09:23;25.10;99.90
15596;DHT22;7898;48.658;9.068;2023-09-07T10:11:53;25.20;99.90
15596;DHT22;7898;48.658;9.068;2023-09-07T10:14:21;25.30;99.90
15596;DHT22;7898;48.658;9.068;2023-09-07T10:16:50;25.40;99.90
15596;DHT22;7898;48.658;9.068;2023-09-07T10:19:19;25.50;99.90
15596;DHT22;7898;48.658;9.068;2023-09-07T10:21:46;25.40;99.90
15596;DHT22;7898;48.658;9.068;2023-09-07T10:24:24;25.30;99.90
15596;DHT22;7898;48.658;9.068;2023-09-07T10:26:59;25.30;99.90
15596;DHT22;7898;48.658;9.068;2023-09-07T10:29:26;25.30;99.90
15596;DHT22;7898;48.658;9.068;2023-09-07T10:31:54;25.40;99.90
15596;DHT22;7898;48.658;9.068;2023-09-07T10:34:22;25.40;99.90
15596;DHT22;7898;48.658;9.068;2023-09-07T10:37:00;25.40;99.90
15596;DHT22;7898;48.658;9.068;2023-09-07T10:39:31;25.20;99.90
15596;DHT22;7898;48.658;9.068;2023-09-07T10:41:57;25.10;99.90
15596;DHT22;7898;48.658;9.068;2023-09-07T10:44:28;25.10;99.90
15596;DHT22;7898;48.658;9.068;2023-09-07T10:46:57;25.20;99.90
15596;DHT22;7898;48.658;9.068;2023-09-07T10:49:24;25.30;99.90
15596;DHT22;7898;48.658;9.068;2023-09-07T10:51:51;25.40;99.90
15596;DHT22;7898;48.658;9.068;2023-09-07T10:54:22;25.40;99.90
15596;DHT22;7898;48.658;9.068;2023-09-07T10:56:50;25.60;99.90
15596;DHT22;7898;48.658;9.068;2023-09-07T10:59:17;25.70;99.90
15596;DHT22;7898;48.658;9.068;2023-09-07T11:01:44;25.70;99.90
15596;DHT22;7898;48.658;9.068;2023-09-07T11:04:13;25.80;99.90
15596;DHT22;7898;48.658;9.068;2023-09-07T11:06:40;25.80;99.90
15596;DHT22;7898;48.658;9.068;2023-09-07T11:09:08;25.70;99.90
15596;DHT22;7898;48.658;9.068;2023-09-07T11:11:36;25.70;99.90
15596;DHT22;7898;48.658;9.068;2023-09-07T11:14:03;25.60;99.90
15596;DHT22;7898;48.658;9.068;2023-09-07T11:16:30;25.70;99.90
15596;DHT22;7898;48.658;9.068;2023-09-07T11:18:57;25.70;99.90
15596;DHT22;7898;48.658;9.068;2023-09-07T11:21:31;25.70;99.90
15596;DHT22;7898;48.658;9.068;2023-09-07T11:24:00;25.70;99.90
15596;DHT22;7898;48.658;9.068;2023-09-07T11:26:39;25.80;99.90
15596;DHT22;7898;48.658;9.068;2023-09-07T11:29:06;25.80;99.90
15596;DHT22;7898;48.658;9.068;2023-09-07T11:31:33;25.80;99.90
15596;DHT22;7898;48.658;9.068;2023-09-07T11:34:00;25.60;99.90
15596;DHT22;7898;48.658;9.068;2023-09-07T11:36:27;25.70;99.90
15596;DHT22;7898;48.658;9.068;2023-09-07T11:38:55;25.70;99.90
15596;DHT22;7898;48.658;9.068;2023-09-07T11:41:23;25.80;99.90
15596;DHT22;7898;48.658;9.068;2023-09-07T11:43:50;25.80;99.90
15596;DHT22;7898;48.658;9.068;2023-09-07T11:46:16;25.80;99.90
15596;DHT22;7898;48.658;9.068;2023-09-07T11:48:43;25.80;99.90
15596;DHT22;7898;48.658;9.068;2023-09-07T11:51:10;25.80;99.90
15596;DHT22;7898;48.658;9.068;2023-09-07T11:53:37;25.80;99.90
15596;DHT22;7898;48.658;9.068;2023-09-07T11:56:05;25.80;99.90
15596;DHT22;7898;48.658;9.068;2023-09-07T11:58:32;25.90;99.90
15596;DHT22;7898;48.658;9.068;2023-09-07T12:00:59;26.00;99.90
15596;DHT22;7898;48.658;9.068;2023-09-07T12:03:26;26.00;99.90
15596;DHT22;7898;48.658;9.068;2023-09-07T12:05:55;26.00;99.90
15596;DHT22;7898;48.658;9.068;2023-09-07T12:08:22;26.00;99.90
15596;DHT22;7898;48.658;9.068;2023-09-07T12:10:49;26.00;99.90
15596;DHT22;7898;48.658;9.068;2023-09-07T12:13:17;26.10;99.90
15596;DHT22;7898;48.658;9.068;2023-09-07T12:15:44;26.10;99.90
15596;DHT22;7898;48.658;9.068;2023-09-07T12:18:11;26.10;99.90
15596;DHT22;7898;48.658;9.068;2023-09-07T12:20:38;26.10;99.90
15596;DHT22;7898;48.658;9.068;2023-09-07T12:23:05;26.20;99.90
15596;DHT22;7898;48.658;9.068;2023-09-07T12:25:35;26.30;99.90
15596;DHT22;7898;48.658;9.068;2023-09-07T12:28:02;26.20;99.90
15596;DHT22;7898;48.658;9.068;2023-09-07T12:30:30;26.30;99.90
15596;DHT22;7898;48.658;9.068;2023-09-07T12:32:57;26.40;99.90
15596;DHT22;7898;48.658;9.068;2023-09-07T12:35:24;26.40;99.90
15596;DHT22;7898;48.658;9.068;2023-09-07T12:37:51;26.60;99.90
15596;DHT22;7898;48.658;9.068;2023-09-07T12:40:18;26.70;99.90
15596;DHT22;7898;48.658;9.068;2023-09-07T12:42:46;26.80;99.90
15596;DHT22;7898;48.658;9.068;2023-09-07T12:45:13;26.80;99.90
15596;DHT22;7898;48.658;9.068;2023-09-07T12:47:42;26.80;99.90
15596;DHT22;7898;48.658;9.068;2023-09-07T12:50:09;26.90;99.90
15596;DHT22;7898;48.658;9.068;2023-09-07T12:52:36;26.90;99.90
15596;DHT22;7898;48.658;9.068;2023-09-07T12:55:03;27.00;99.90
15596;DHT22;7898;48.658;9.068;2023-09-07T12:57:30;27.10;99.90
15596;DHT22;7898;48.658;9.068;2023-09-07T12:59:57;27.20;99.90
15596;DHT22;7898;48.658;9.068;2023-09-07T13:02:24;27.20;99.90
15596;DHT22;7898;48.658;9.068;2023-09-07T13:04:53;27.30;99.90
15596;DHT22;7898;48.658;9.068;2023-09-07T13:07:20;27.40;99.90
15596;DHT22;7898;48.658;9.068;2023-09-07T13:09:47;27.50;99.90
15596;DHT22;7898;48.658;9.068;2023-09-07T13:12:15;27.50;99.90
15596;DHT22;7898;48.658;9.068;2023-09-07T13:14:42;27.50;99.90
15596;DHT22;7898;48.658;9.068;2023-09-07T13:17:11;27.60;99.90
15596;DHT22;7898;48.658;9.068;2023-09-07T13:19:38;27.70;99.90
15596;DHT22;7898;48.658;9.068;2023-09-07T13:22:07;27.90;99.90
15596;DHT22;7898;48.658;9.068;2023-09-07T13:24:34;28.10;99.90
15596;DHT22;7898;48.658;9.068;2023-09-07T13:27:00;28.20;99.90
15596;DHT22;7898;48.658;9.068;2023-09-07T13:29:29;28.40;99.90
15596;DHT22;7898;48.658;9.068;2023-09-07T13:31:57;28.50;99.90
15596;DHT22;7898;48.658;9.068;2023-09-07T13:34:25;28.70;99.90
15596;DHT22;7898;48.658;9.068;2023-09-07T13:36:52;28.80;99.90
15596;DHT22;7898;48.658;9.068;2023-09-07T13:39:21;28.80;99.90
15596;DHT22;7898;48.658;9.068;2023-09-07T13:41:48;28.70;99.90
15596;DHT22;7898;48.658;9.068;2023-09-07T13:44:15;28.90;99.90
15596;DHT22;7898;48.658;9.068;2023-09-07T13:46:43;28.90;99.90
15596;DHT22;7898;48.658;9.068;2023-09-07T13:49:10;28.80;99.90
15596;DHT22;7898;48.658;9.068;2023-09-07T13:51:37;29.00;99.90
15596;DHT22;7898;48.658;9.068;2023-09-07T13:54:05;29.20;99.90
15596;DHT22;7898;48.658;9.068;2023-09-07T13:56:34;29.40;99.90
15596;DHT22;7898;48.658;9.068;2023-09-07T13:59:01;29.70;99.90
15596;DHT22;7898;48.658;9.068;2023-09-07T14:01:28;29.90;99.90
15596;DHT22;7898;48.658;9.068;2023-09-07T14:03:55;30.10;99.90
15596;DHT22;7898;48.658;9.068;2023-09-07T14:06:22;30.70;99.90
15596;DHT22;7898;48.658;9.068;2023-09-07T14:08:49;31.20;99.90
15596;DHT22;7898;48.658;9.068;2023-09-07T14:11:16;31.80;99.90
15596;DHT22;7898;48.658;9.068;2023-09-07T14:13:46;31.90;99.90
15596;DHT22;7898;48.658;9.068;2023-09-07T14:16:17;31.90;99.90
15596;DHT22;7898;48.658;9.068;2023-09-07T14:18:43;32.10;99.90
15596;DHT22;7898;48.658;9.068;2023-09-07T14:21:10;32.50;99.90
15596;DHT22;7898;48.658;9.068;2023-09-07T14:23:37;33.10;99.90
15596;DHT22;7898;48.658;9.068;2023-09-07T14:26:04;33.00;99.90
15596;DHT22;7898;48.658;9.068;2023-09-07T14:28:31;33.30;99.90
15596;DHT22;7898;48.658;9.068;2023-09-07T14:30:59;33.70;99.90
15596;DHT22;7898;48.658;9.068;2023-09-07T14:33:29;33.80;99.90
15596;DHT22;7898;48.658;9.068;2023-09-07T14:35:57;34.20;99.90
15596;DHT22;7898;48.658;9.068;2023-09-07T14:38:24;34.80;99.90
15596;DHT22;7898;48.658;9.068;2023-09-07T14:40:52;35.30;99.90
15596;DHT22;7898;48.658;9.068;2023-09-07T14:43:20;35.50;99.90
15596;DHT22;7898;48.658;9.068;2023-09-07T14:45:47;35.60;99.90
15596;DHT22;7898;48.658;9.068;2023-09-07T14:48:16;35.60;99.90
15596;DHT22;7898;48.658;9.068;2023-09-07T14:50:42;35.70;99.90
15596;DHT22;7898;48.658;9.068;2023-09-07T14:53:09;35.60;99.90
15596;DHT22;7898;48.658;9.068;2023-09-07T14:55:36;35.40;99.90
15596;DHT22;7898;48.658;9.068;2023-09-07T14:58:03;35.70;99.90
15596;DHT22;7898;48.658;9.068;2023-09-07T15:00:32;36.00;99.60
15596;DHT22;7898;48.658;9.068;2023-09-07T15:02:59;36.10;98.50
15596;DHT22;7898;48.658;9.068;2023-09-07T15:05:27;35.70;98.10
15596;DHT22;7898;48.658;9.068;2023-09-07T15:07:55;35.40;99.00
15596;DHT22;7898;48.658;9.068;2023-09-07T15:10:22;35.30;98.90
15596;DHT22;7898;48.658;9.068;2023-09-07T15:12:51;35.40;98.80
15596;DHT22;7898;48.658;9.068;2023-09-07T15:15:19;35.30;98.50
15596;DHT22;7898;48.658;9.068;2023-09-07T15:17:47;35.40;98.00
15596;DHT22;7898;48.658;9.068;2023-09-07T15:20:14;35.10;97.80
15596;DHT22;7898;48.658;9.068;2023-09-07T15:22:43;35.20;96.60
15596;DHT22;7898;48.658;9.068;2023-09-07T15:25:09;34.90;96.60
15596;DHT22;7898;48.658;9.068;2023-09-07T15:27:36;34.90;98.30
15596;DHT22;7898;48.658;9.068;2023-09-07T15:30:04;34.80;97.00
15596;DHT22;7898;48.658;9.068;2023-09-07T15:32:31;34.50;97.40
15596;DHT22;7898;48.658;9.068;2023-09-07T15:34:58;34.40;97.70
15596;DHT22;7898;48.658;9.068;2023-09-07T15:37:25;34.40;97.50
15596;DHT22;7898;48.658;9.068;2023-09-07T15:39:53;34.10;97.20
15596;DHT22;7898;48.658;9.068;2023-09-07T15:42:20;33.90;97.70
15596;DHT22;7898;48.658;9.068;2023-09-07T15:44:47;33.70;97.10
15596;DHT22;7898;48.658;9.068;2023-09-07T15:47:14;33.60;99.20